sensor_id;sensor_type;location;lat;lon;timestamp;pressure;altitude;pressure_sealevel;temperature;humidity
74427;BME280;62859;53.906;27.430;2023-03-19T00:04:14;1015.6;;;6;37.3
74427;BME280;62859;53.906;27.430;2023-03-19T00:09:12;1015.7;;;6;37.4
74427;BME280;62859;53.906;27.430;2023-03-19T00:13:46;1015.7;;;5.9;37.5
74427;BME280;62859;53.906;27.430;2023-03-19T00:18:34;1015.7;;;5.9;37.7
74427;BME280;62859;53.906;27.430;2023-03-19T00:24:14;1015.6;;;5.9;37.8
74427;BME280;62859;53.906;27.430;2023-03-19T00:29:00;1015.6;;;5.9;38
74427;BME280;62859;53.906;27.430;2023-03-19T00:33:52;1015.6;;;5.9;37.9
74427;BME280;62859;53.906;27.430;2023-03-19T00:38:46;1015.5;;;5.9;38
74427;BME280;62859;53.906;27.430;2023-03-19T00:44:00;1015.5;;;5.9;38.1
74427;BME280;62859;53.906;27.430;2023-03-19T00:48:40;1015.5;;;5.7;38.5
74427;BME280;62859;53.906;27.430;2023-03-19T00:53:52;1015.4;;;5.7;38.7
74427;BME280;62859;53.906;27.430;2023-03-19T00:59:14;1015.4;;;5.8;38.8
74427;BME280;62859;53.906;27.430;2023-03-19T01:03:46;1015.4;;;5.7;38.9
74427;BME280;62859;53.906;27.430;2023-03-19T01:09:14;1015.4;;;5.7;39.1
74427;BME280;62859;53.906;27.430;2023-03-19T01:14:04;1015.4;;;5.6;39.6
74427;BME280;62859;53.906;27.430;2023-03-19T01:18:34;1015.4;;;5.6;39.7
74427;BME280;62859;53.906;27.430;2023-03-19T01:23:42;1015.4;;;5.6;39.8
74427;BME280;62859;53.906;27.430;2023-03-19T01:29:06;1015.4;;;5.5;40.2
74427;BME280;62859;53.906;27.430;2023-03-19T01:33:34;1015.4;;;5.6;40.2
74427;BME280;62859;53.906;27.430;2023-03-19T01:38:48;1015.4;;;5.6;40.4
74427;BME280;62859;53.906;27.430;2023-03-19T01:44:30;1015.3;;;5.6;40.4
74427;BME280;62859;53.906;27.430;2023-03-19T01:48:52;1015.3;;;5.6;40.6
74427;BME280;62859;53.906;27.430;2023-03-19T01:54:14;1015.3;;;5.6;40.9
74427;BME280;62859;53.906;27.430;2023-03-19T01:59:15;1015.3;;;5.5;41.4
74427;BME280;62859;53.906;27.430;2023-03-19T02:04:06;1015.3;;;5.4;42.1
74427;BME280;62859;53.906;27.430;2023-03-19T02:08:46;1015.3;;;5.4;41.9
74427;BME280;62859;53.906;27.430;2023-03-19T02:13:34;1015.3;;;5.4;42.1
74427;BME280;62859;53.906;27.430;2023-03-19T02:19:00;1015.3;;;5.4;42.4
74427;BME280;62859;53.906;27.430;2023-03-19T02:24:15;1015.3;;;5.3;42.6
74427;BME280;62859;53.906;27.430;2023-03-19T02:28:52;1015.3;;;5.3;42.7
74427;BME280;62859;53.906;27.430;2023-03-19T02:34:31;1015.3;;;5.2;42.9
74427;BME280;62859;53.906;27.430;2023-03-19T02:39:16;1015.3;;;5.2;42.9
74427;BME280;62859;53.906;27.430;2023-03-19T02:43:50;1015.3;;;5.1;43.2
74427;BME280;62859;53.906;27.430;2023-03-19T02:48:52;1015.2;;;5;43.6
74427;BME280;62859;53.906;27.430;2023-03-19T02:54:00;1015.2;;;5;43.6
74427;BME280;62859;53.906;27.430;2023-03-19T02:58:34;1015.2;;;4.9;44
74427;BME280;62859;53.906;27.430;2023-03-19T03:03:46;1015.3;;;4.9;44.1
74427;BME280;62859;53.906;27.430;2023-03-19T03:09:04;1015.2;;;4.9;44.8
74427;BME280;62859;53.906;27.430;2023-03-19T03:13:34;1015.2;;;4.9;45.2
74427;BME280;62859;53.906;27.430;2023-03-19T03:19:14;1015.2;;;4.9;45.7
74427;BME280;62859;53.906;27.430;2023-03-19T03:23:50;1015.2;;;4.9;45.8
74427;BME280;62859;53.906;27.430;2023-03-19T03:29:14;1015.2;;;5;46.1
74427;BME280;62859;53.906;27.430;2023-03-19T03:34:00;1015.2;;;5;46.9
74427;BME280;62859;53.906;27.430;2023-03-19T03:38:40;1015.2;;;4.9;47.1
74427;BME280;62859;53.906;27.430;2023-03-19T03:43:46;1015.1;;;4.8;47.8
74427;BME280;62859;53.906;27.430;2023-03-19T03:49:00;1015.1;;;4.8;47.9
74427;BME280;62859;53.906;27.430;2023-03-19T03:53:34;1015.1;;;4.9;48.1
74427;BME280;62859;53.906;27.430;2023-03-19T03:58:46;1015.1;;;4.8;48.6
74427;BME280;62859;53.906;27.430;2023-03-19T04:04:12;1015.1;;;4.8;49.1
74427;BME280;62859;53.906;27.430;2023-03-19T04:08:46;1015;;;4.8;49.7
74427;BME280;62859;53.906;27.430;2023-03-19T04:14:14;1015;;;4.9;50.2
74427;BME280;62859;53.906;27.430;2023-03-19T04:19:06;1015;;;4.9;50.2
74427;BME280;62859;53.906;27.430;2023-03-19T04:23:46;1015;;;5;50
74427;BME280;62859;53.906;27.430;2023-03-19T04:28:42;1015;;;5;50.3
74427;BME280;62859;53.906;27.430;2023-03-19T04:33:50;1015;;;5;50.6
74427;BME280;62859;53.906;27.430;2023-03-19T04:38:34;1014.9;;;5;50.6
74427;BME280;62859;53.906;27.430;2023-03-19T04:44:00;1015;;;5;51.1
74427;BME280;62859;53.906;27.430;2023-03-19T04:49:12;1015;;;5.1;51.3
74427;BME280;62859;53.906;27.430;2023-03-19T04:53:52;1015;;;5.1;51
74427;BME280;62859;53.906;27.430;2023-03-19T04:59:14;1014.9;;;5.1;51.4
74427;BME280;62859;53.906;27.430;2023-03-19T05:04:02;1014.9;;;5.2;51.8
74427;BME280;62859;53.906;27.430;2023-03-19T05:08:54;1014.9;;;5.2;51.7
74427;BME280;62859;53.906;27.430;2023-03-19T05:13:40;1014.9;;;5.2;52
74427;BME280;62859;53.906;27.430;2023-03-19T05:18:46;1014.9;;;5.2;52.3
74427;BME280;62859;53.906;27.430;2023-03-19T05:24:00;1014.8;;;5.2;52.5
74427;BME280;62859;53.906;27.430;2023-03-19T05:29:00;1014.8;;;5.2;52.4
74427;BME280;62859;53.906;27.430;2023-03-19T05:33:52;1014.7;;;5.2;52.8
74427;BME280;62859;53.906;27.430;2023-03-19T05:39:14;1014.7;;;5.2;53.1
74427;BME280;62859;53.906;27.430;2023-03-19T05:44:12;1014.8;;;5.2;53.1
74427;BME280;62859;53.906;27.430;2023-03-19T05:48:40;1014.7;;;5.1;53.3
74427;BME280;62859;53.906;27.430;2023-03-19T05:53:52;1014.7;;;5.2;53.2
74427;BME280;62859;53.906;27.430;2023-03-19T05:58:52;1014.7;;;5.3;53
74427;BME280;62859;53.906;27.430;2023-03-19T06:03:46;1014.8;;;5.3;53
74427;BME280;62859;53.906;27.430;2023-03-19T06:08:46;1014.7;;;5.3;53.7
74427;BME280;62859;53.906;27.430;2023-03-19T06:14:06;1014.7;;;5.4;53.6
74427;BME280;62859;53.906;27.430;2023-03-19T06:18:34;1014.7;;;5.5;54
74427;BME280;62859;53.906;27.430;2023-03-19T06:24:12;1014.7;;;5.6;54.1
74427;BME280;62859;53.906;27.430;2023-03-19T06:28:48;1014.7;;;5.7;53.7
74427;BME280;62859;53.906;27.430;2023-03-19T06:34:14;1014.6;;;5.8;53.9
74427;BME280;62859;53.906;27.430;2023-03-19T06:38:48;1014.6;;;6;53.9
74427;BME280;62859;53.906;27.430;2023-03-19T06:44:14;1014.7;;;6.1;53.9
74427;BME280;62859;53.906;27.430;2023-03-19T06:48:52;1014.8;;;6.3;53.8
74427;BME280;62859;53.906;27.430;2023-03-19T06:54:00;1014.7;;;6.4;53.6
74427;BME280;62859;53.906;27.430;2023-03-19T06:58:34;1014.7;;;6.4;53.8
74427;BME280;62859;53.906;27.430;2023-03-19T07:04:06;1014.8;;;6.4;54
74427;BME280;62859;53.906;27.430;2023-03-19T07:08:46;1014.8;;;6.4;54.1
74427;BME280;62859;53.906;27.430;2023-03-19T07:13:34;1014.7;;;6.5;54.1
74427;BME280;62859;53.906;27.430;2023-03-19T07:19:14;1014.7;;;6.6;54
74427;BME280;62859;53.906;27.430;2023-03-19T07:23:52;1014.8;;;6.7;53.9
74427;BME280;62859;53.906;27.430;2023-03-19T07:28:34;1014.8;;;6.8;53.7
74427;BME280;62859;53.906;27.430;2023-03-19T07:34:12;1014.8;;;7;53.2
74427;BME280;62859;53.906;27.430;2023-03-19T07:38:52;1014.8;;;7.1;53
74427;BME280;62859;53.906;27.430;2023-03-19T07:43:34;1014.7;;;7.2;52.7
74427;BME280;62859;53.906;27.430;2023-03-19T07:48:54;1014.7;;;7.3;52.8
74427;BME280;62859;53.906;27.430;2023-03-19T07:54:12;1014.6;;;7.5;52.5
74427;BME280;62859;53.906;27.430;2023-03-19T07:58:52;1014.6;;;7.7;51.9
74427;BME280;62859;53.906;27.430;2023-03-19T08:04:14;1014.6;;;8;51.6
74427;BME280;62859;53.906;27.430;2023-03-19T08:09:14;1014.6;;;8.3;51.3
74427;BME280;62859;53.906;27.430;2023-03-19T08:14:06;1014.7;;;8.7;50.3
74427;BME280;62859;53.906;27.430;2023-03-19T08:18:34;1014.6;;;9.3;49.1
74427;BME280;62859;53.906;27.430;2023-03-19T08:23:34;1014.6;;;9.9;47.9
74427;BME280;62859;53.906;27.430;2023-03-19T08:28:42;1014.6;;;10.3;47
74427;BME280;62859;53.906;27.430;2023-03-19T08:33:58;1014.6;;;10.7;46
74427;BME280;62859;53.906;27.430;2023-03-19T08:38:40;1014.6;;;11.1;45
74427;BME280;62859;53.906;27.430;2023-03-19T08:44:14;1014.5;;;11.4;44.7
74427;BME280;62859;53.906;27.430;2023-03-19T08:49:14;1014.4;;;11.7;43.8
74427;BME280;62859;53.906;27.430;2023-03-19T08:53:40;1014.4;;;12.2;43.3
74427;BME280;62859;53.906;27.430;2023-03-19T08:58:52;1014.4;;;12.8;42.4
74427;BME280;62859;53.906;27.430;2023-03-19T09:03:54;1014.3;;;13.2;41.1
74427;BME280;62859;53.906;27.430;2023-03-19T09:08:40;1014.3;;;13.5;40.6
74427;BME280;62859;53.906;27.430;2023-03-19T09:13:46;1014.3;;;13.7;39.9
74427;BME280;62859;53.906;27.430;2023-03-19T09:19:06;1014.2;;;13.8;39.8
74427;BME280;62859;53.906;27.430;2023-03-19T09:23:34;1014.2;;;14.1;39.5
74427;BME280;62859;53.906;27.430;2023-03-19T09:29:14;1014.2;;;14.3;39.1
74427;BME280;62859;53.906;27.430;2023-03-19T09:33:52;1014.2;;;14.5;38.8
74427;BME280;62859;53.906;27.430;2023-03-19T09:38:54;1014.1;;;14.8;38.1
74427;BME280;62859;53.906;27.430;2023-03-19T09:44:15;1014.1;;;15;37.9
74427;BME280;62859;53.906;27.430;2023-03-19T09:49:11;1014.1;;;15.2;37.5
74427;BME280;62859;53.906;27.430;2023-03-19T09:54:18;1014;;;15.5;37
74427;BME280;62859;53.906;27.430;2023-03-19T09:59:01;1014;;;15.8;36.7
74427;BME280;62859;53.906;27.430;2023-03-19T10:03:38;1014.1;;;16.1;36.1
74427;BME280;62859;53.906;27.430;2023-03-19T10:09:11;1014;;;16.4;36
74427;BME280;62859;53.906;27.430;2023-03-19T10:13:50;1014;;;16.8;35.6
74427;BME280;62859;53.906;27.430;2023-03-19T10:18:34;1014;;;17;34.9
74427;BME280;62859;53.906;27.430;2023-03-19T10:24:14;1014;;;17.2;34.7
74427;BME280;62859;53.906;27.430;2023-03-19T10:28:45;1014;;;17.4;34
74427;BME280;62859;53.906;27.430;2023-03-19T10:33:36;1014;;;17.5;33.8
74427;BME280;62859;53.906;27.430;2023-03-19T10:39:14;1014;;;17.7;34.1
74427;BME280;62859;53.906;27.430;2023-03-19T10:43:34;1014;;;18;32.9
74427;BME280;62859;53.906;27.430;2023-03-19T10:48:34;1013.9;;;17.9;32.9
74427;BME280;62859;53.906;27.430;2023-03-19T10:54:00;1013.8;;;18;33.2
74427;BME280;62859;53.906;27.430;2023-03-19T10:59:01;1013.8;;;18.4;32.7
74427;BME280;62859;53.906;27.430;2023-03-19T11:03:48;1013.8;;;18.9;32.2
74427;BME280;62859;53.906;27.430;2023-03-19T11:08:49;1013.7;;;19.2;31.3
74427;BME280;62859;53.906;27.430;2023-03-19T11:14:14;1013.7;;;19.1;31.3
74427;BME280;62859;53.906;27.430;2023-03-19T11:19:15;1013.7;;;19.3;31.2
74427;BME280;62859;53.906;27.430;2023-03-19T11:23:46;1013.7;;;19.5;30.4
74427;BME280;62859;53.906;27.430;2023-03-19T11:28:50;1013.6;;;19.5;30.1
74427;BME280;62859;53.906;27.430;2023-03-19T11:34:16;1013.6;;;19.6;29.9
74427;BME280;62859;53.906;27.430;2023-03-19T11:39:04;1013.6;;;19.8;29.8
74427;BME280;62859;53.906;27.430;2023-03-19T11:43:45;1013.6;;;20;29.4
74427;BME280;62859;53.906;27.430;2023-03-19T11:49:17;1013.5;;;19.8;30
74427;BME280;62859;53.906;27.430;2023-03-19T11:54:16;1013.4;;;19.8;30.2
74427;BME280;62859;53.906;27.430;2023-03-19T11:58:43;1013.3;;;20.1;29.5
74427;BME280;62859;53.906;27.430;2023-03-19T12:04:10;1013.2;;;20.3;29.4
74427;BME280;62859;53.906;27.430;2023-03-19T12:08:48;1013.2;;;20.4;29.2
74427;BME280;62859;53.906;27.430;2023-03-19T12:13:36;1013.2;;;20.2;29
74427;BME280;62859;53.906;27.430;2023-03-19T12:18:46;1013.2;;;20.4;28.9
74427;BME280;62859;53.906;27.430;2023-03-19T12:24:09;1013.1;;;20.7;28.3
74427;BME280;62859;53.906;27.430;2023-03-19T12:28:35;1013;;;20.9;28.3
74427;BME280;62859;53.906;27.430;2023-03-19T12:34:18;1013;;;21;27.8
74427;BME280;62859;53.906;27.430;2023-03-19T12:38:41;1012.9;;;21;28.1
74427;BME280;62859;53.906;27.430;2023-03-19T12:44:17;1012.8;;;20.9;28.3
74427;BME280;62859;53.906;27.430;2023-03-19T12:49:01;1012.9;;;20.8;28.2
74427;BME280;62859;53.906;27.430;2023-03-19T12:54:17;1012.8;;;21;27.7
74427;BME280;62859;53.906;27.430;2023-03-19T12:58:53;1012.7;;;21.2;27.5
74427;BME280;62859;53.906;27.430;2023-03-19T13:04:02;1012.6;;;21.3;27.7
74427;BME280;62859;53.906;27.430;2023-03-19T13:08:36;1012.7;;;21.2;27.7
74427;BME280;62859;53.906;27.430;2023-03-19T13:14:09;1012.7;;;21;28.1
74427;BME280;62859;53.906;27.430;2023-03-19T13:18:47;1012.6;;;20.9;28.2
74427;BME280;62859;53.906;27.430;2023-03-19T13:23:44;1012.6;;;21;28.1
74427;BME280;62859;53.906;27.430;2023-03-19T13:29:15;1012.5;;;21.1;27.9
74427;BME280;62859;53.906;27.430;2023-03-19T13:33:47;1012.5;;;20.8;28
74427;BME280;62859;53.906;27.430;2023-03-19T13:38:37;1012.4;;;20.5;28.4
74427;BME280;62859;53.906;27.430;2023-03-19T13:44:23;1012.3;;;19.5;30
74427;BME280;62859;53.906;27.430;2023-03-19T13:48:48;1012.3;;;18.3;31.8
74427;BME280;62859;53.906;27.430;2023-03-19T13:53:36;1012.2;;;17.5;33.1
74427;BME280;62859;53.906;27.430;2023-03-19T13:59:32;1012.2;;;16.7;34.8
74427;BME280;62859;53.906;27.430;2023-03-19T14:04:16;1012.2;;;16.3;35.5
74427;BME280;62859;53.906;27.430;2023-03-19T14:08:46;1012.1;;;15.9;36.3
74427;BME280;62859;53.906;27.430;2023-03-19T14:13:46;1012.2;;;15.5;37.4
74427;BME280;62859;53.906;27.430;2023-03-19T14:19:15;1012.2;;;15.2;38.4
74427;BME280;62859;53.906;27.430;2023-03-19T14:24:33;1012.2;;;14.8;39.2
74427;BME280;62859;53.906;27.430;2023-03-19T14:28:48;1012.1;;;14.6;39.8
74427;BME280;62859;53.906;27.430;2023-03-19T14:34:01;1012.1;;;14.3;40.3
74427;BME280;62859;53.906;27.430;2023-03-19T14:39:16;1012;;;14.1;41.1
74427;BME280;62859;53.906;27.430;2023-03-19T14:44:21;1011.9;;;14;41.3
74427;BME280;62859;53.906;27.430;2023-03-19T14:48:42;1011.8;;;13.9;41.5
74427;BME280;62859;53.906;27.430;2023-03-19T14:54:03;1011.8;;;13.8;41.8
74427;BME280;62859;53.906;27.430;2023-03-19T14:59:01;1011.9;;;13.8;41.8
74427;BME280;62859;53.906;27.430;2023-03-19T15:03:50;1011.9;;;13.9;41.7
74427;BME280;62859;53.906;27.430;2023-03-19T15:08:34;1011.9;;;13.9;41.8
74427;BME280;62859;53.906;27.430;2023-03-19T15:14:09;1011.9;;;13.7;42.2
74427;BME280;62859;53.906;27.430;2023-03-19T15:18:34;1011.8;;;13.4;42.6
74427;BME280;62859;53.906;27.430;2023-03-19T15:24:15;1011.9;;;13.3;43.1
74427;BME280;62859;53.906;27.430;2023-03-19T15:29:06;1011.9;;;13.2;43.2
74427;BME280;62859;53.906;27.430;2023-03-19T15:33:52;1011.9;;;13.3;43.1
74427;BME280;62859;53.906;27.430;2023-03-19T15:39:14;1011.9;;;13.3;43
74427;BME280;62859;53.906;27.430;2023-03-19T15:43:46;1011.9;;;13.3;43.3
74427;BME280;62859;53.906;27.430;2023-03-19T15:48:35;1011.9;;;13.3;43.2
74427;BME280;62859;53.906;27.430;2023-03-19T15:54:00;1011.9;;;13.1;43.4
74427;BME280;62859;53.906;27.430;2023-03-19T15:59:14;1011.9;;;13.1;43.4
74427;BME280;62859;53.906;27.430;2023-03-19T16:03:54;1011.9;;;13;43.6
74427;BME280;62859;53.906;27.430;2023-03-19T16:09:16;1011.9;;;12.9;43.9
74427;BME280;62859;53.906;27.430;2023-03-19T16:14:20;1011.9;;;12.9;43.9
74427;BME280;62859;53.906;27.430;2023-03-19T16:19:22;1011.8;;;12.8;44
74427;BME280;62859;53.906;27.430;2023-03-19T16:23:35;1011.9;;;12.8;44.1
74427;BME280;62859;53.906;27.430;2023-03-19T16:28:43;1012;;;12.6;44.4
74427;BME280;62859;53.906;27.430;2023-03-19T16:34:02;1011.9;;;12.5;44.8
74427;BME280;62859;53.906;27.430;2023-03-19T16:39:21;1012;;;12.4;44.9
74427;BME280;62859;53.906;27.430;2023-03-19T16:43:34;1012;;;12.4;45.1
74427;BME280;62859;53.906;27.430;2023-03-19T16:49:14;1012.1;;;12.4;45.2
74427;BME280;62859;53.906;27.430;2023-03-19T16:54:12;1012.1;;;12.2;45.6
74427;BME280;62859;53.906;27.430;2023-03-19T16:58:41;1012.1;;;12;46
74427;BME280;62859;53.906;27.430;2023-03-19T17:03:54;1012.1;;;11.8;46.4
74427;BME280;62859;53.906;27.430;2023-03-19T17:09:02;1012.1;;;11.8;46.4
74427;BME280;62859;53.906;27.430;2023-03-19T17:13:48;1012;;;11.8;46.6
74427;BME280;62859;53.906;27.430;2023-03-19T17:18:48;1012.1;;;11.7;46.9
74427;BME280;62859;53.906;27.430;2023-03-19T17:24:14;1012.1;;;11.6;47
74427;BME280;62859;53.906;27.430;2023-03-19T17:28:58;1012.1;;;11.6;47.1
74427;BME280;62859;53.906;27.430;2023-03-19T17:34:17;1012.1;;;11.6;47
74427;BME280;62859;53.906;27.430;2023-03-19T17:38:54;1012.1;;;11.6;47.1
74427;BME280;62859;53.906;27.430;2023-03-19T17:44:18;1012.1;;;11.5;47.2
74427;BME280;62859;53.906;27.430;2023-03-19T17:48:44;1012;;;11.5;47.2
74427;BME280;62859;53.906;27.430;2023-03-19T17:54:12;1012;;;11.5;47.1
74427;BME280;62859;53.906;27.430;2023-03-19T17:58:56;1012.1;;;11.5;47.1
74427;BME280;62859;53.906;27.430;2023-03-19T18:04:04;1012.1;;;11.4;47.1
74427;BME280;62859;53.906;27.430;2023-03-19T18:08:42;1012.1;;;11.4;47
74427;BME280;62859;53.906;27.430;2023-03-19T18:14:10;1012.1;;;11.4;46.9
74427;BME280;62859;53.906;27.430;2023-03-19T18:18:34;1012.1;;;11.4;46.9
74427;BME280;62859;53.906;27.430;2023-03-19T18:23:34;1012;;;11.3;47
74427;BME280;62859;53.906;27.430;2023-03-19T18:29:18;1012;;;11.2;47.2
74427;BME280;62859;53.906;27.430;2023-03-19T18:33:34;1012.1;;;11.2;47.3
74427;BME280;62859;53.906;27.430;2023-03-19T18:38:42;1012.1;;;11.2;47.3
74427;BME280;62859;53.906;27.430;2023-03-19T18:44:18;1012.1;;;11.2;47.3
74427;BME280;62859;53.906;27.430;2023-03-19T18:48:59;1012.1;;;11.1;47.6
74427;BME280;62859;53.906;27.430;2023-03-19T18:53:34;1012;;;11.1;47.7
74427;BME280;62859;53.906;27.430;2023-03-19T18:58:44;1012;;;11.1;47.7
74427;BME280;62859;53.906;27.430;2023-03-19T19:04:18;1012;;;11;47.8
74427;BME280;62859;53.906;27.430;2023-03-19T19:08:34;1011.9;;;11;47.8
74427;BME280;62859;53.906;27.430;2023-03-19T19:13:49;1011.9;;;11;47.8
74427;BME280;62859;53.906;27.430;2023-03-19T19:18:50;1011.9;;;11;47.9
74427;BME280;62859;53.906;27.430;2023-03-19T19:24:18;1011.9;;;10.9;48.1
74427;BME280;62859;53.906;27.430;2023-03-19T19:28:35;1011.9;;;10.9;48.4
74427;BME280;62859;53.906;27.430;2023-03-19T19:33:54;1011.9;;;10.9;48.4
74427;BME280;62859;53.906;27.430;2023-03-19T19:39:18;1011.9;;;10.8;48.5
74427;BME280;62859;53.906;27.430;2023-03-19T19:44:18;1011.9;;;10.7;48.6
74427;BME280;62859;53.906;27.430;2023-03-19T19:48:42;1011.9;;;10.7;48.8
74427;BME280;62859;53.906;27.430;2023-03-19T19:54:02;1012;;;10.6;48.9
74427;BME280;62859;53.906;27.430;2023-03-19T19:59:04;1012;;;10.6;49.1
74427;BME280;62859;53.906;27.430;2023-03-19T20:03:43;1011.9;;;10.5;49.2
74427;BME280;62859;53.906;27.430;2023-03-19T20:08:56;1011.9;;;10.5;49.2
74427;BME280;62859;53.906;27.430;2023-03-19T20:13:36;1011.8;;;10.4;49.4
74427;BME280;62859;53.906;27.430;2023-03-19T20:19:02;1011.9;;;10.4;49.4
74427;BME280;62859;53.906;27.430;2023-03-19T20:23:41;1011.9;;;10.3;49.6
74427;BME280;62859;53.906;27.430;2023-03-19T20:29:11;1011.9;;;10.2;49.9
74427;BME280;62859;53.906;27.430;2023-03-19T20:33:42;1011.9;;;10.2;50.1
74427;BME280;62859;53.906;27.430;2023-03-19T20:39:18;1011.9;;;10.1;50.3
74427;BME280;62859;53.906;27.430;2023-03-19T20:43:53;1011.9;;;10;50.4
74427;BME280;62859;53.906;27.430;2023-03-19T20:48:58;1011.9;;;10;50.5
74427;BME280;62859;53.906;27.430;2023-03-19T20:53:51;1011.9;;;10;50.5
74427;BME280;62859;53.906;27.430;2023-03-19T20:59:18;1011.9;;;10;50.5
74427;BME280;62859;53.906;27.430;2023-03-19T21:03:48;1011.9;;;10;50.6
74427;BME280;62859;53.906;27.430;2023-03-19T21:09:04;1011.9;;;10.1;50.3
74427;BME280;62859;53.906;27.430;2023-03-19T21:13:51;1011.8;;;10.1;50.1
74427;BME280;62859;53.906;27.430;2023-03-19T21:19:10;1011.8;;;10.1;50
74427;BME280;62859;53.906;27.430;2023-03-19T21:23:41;1011.8;;;10.2;49.8
74427;BME280;62859;53.906;27.430;2023-03-19T21:28:49;1011.8;;;10.2;49.7
74427;BME280;62859;53.906;27.430;2023-03-19T21:34:18;1011.8;;;10.2;49.8
74427;BME280;62859;53.906;27.430;2023-03-19T21:38:52;1011.8;;;10.2;49.9
74427;BME280;62859;53.906;27.430;2023-03-19T21:43:35;1011.8;;;10.2;50
74427;BME280;62859;53.906;27.430;2023-03-19T21:49:18;1011.8;;;10.2;49.9
74427;BME280;62859;53.906;27.430;2023-03-19T21:54:18;1011.8;;;10.2;49.8
74427;BME280;62859;53.906;27.430;2023-03-19T21:58:34;1011.7;;;10.1;50
74427;BME280;62859;53.906;27.430;2023-03-19T22:04:06;1011.7;;;10.1;50.1
74427;BME280;62859;53.906;27.430;2023-03-19T22:09:18;1011.7;;;10;50.3
74427;BME280;62859;53.906;27.430;2023-03-19T22:13:34;1011.7;;;9.9;50.6
74427;BME280;62859;53.906;27.430;2023-03-19T22:18:49;1011.6;;;9.8;50.8
74427;BME280;62859;53.906;27.430;2023-03-19T22:23:40;1011.6;;;9.7;51.1
74427;BME280;62859;53.906;27.430;2023-03-19T22:29:19;1011.7;;;9.7;51.3
74427;BME280;62859;53.906;27.430;2023-03-19T22:33:48;1011.7;;;9.6;51.6
74427;BME280;62859;53.906;27.430;2023-03-19T22:38:44;1011.6;;;9.5;51.7
74427;BME280;62859;53.906;27.430;2023-03-19T22:44:18;1011.6;;;9.5;51.8
74427;BME280;62859;53.906;27.430;2023-03-19T22:49:00;1011.6;;;9.4;52.1
74427;BME280;62859;53.906;27.430;2023-03-19T22:53:35;1011.5;;;9.3;52.3
74427;BME280;62859;53.906;27.430;2023-03-19T22:59:08;1011.5;;;9.3;52.4
74427;BME280;62859;53.906;27.430;2023-03-19T23:04:20;1011.5;;;9.3;52.6
74427;BME280;62859;53.906;27.430;2023-03-19T23:08:34;1011.5;;;9.3;52.7
74427;BME280;62859;53.906;27.430;2023-03-19T23:13:56;1011.6;;;9.3;52.7
74427;BME280;62859;53.906;27.430;2023-03-19T23:19:18;1011.6;;;9.2;53
74427;BME280;62859;53.906;27.430;2023-03-19T23:23:40;1011.6;;;9.1;53.2
74427;BME280;62859;53.906;27.430;2023-03-19T23:29:10;1011.5;;;9.1;53.3
74427;BME280;62859;53.906;27.430;2023-03-19T23:34:08;1011.5;;;9.1;53.4
74427;BME280;62859;53.906;27.430;2023-03-19T23:38:34;1011.5;;;9;53.6
74427;BME280;62859;53.906;27.430;2023-03-19T23:44:01;1011.4;;;9;53.6
74427;BME280;62859;53.906;27.430;2023-03-19T23:48:44;1011.4;;;9;53.6
74427;BME280;62859;53.906;27.430;2023-03-19T23:53:34;1011.3;;;9;53.8
74427;BME280;62859;53.906;27.430;2023-03-19T23:59:02;1011.3;;;8.9;53.8
